createdAt,value
2022-11-28T00:01:33.614Z,20.08
2022-11-28T00:04:01.648Z,20.15
2022-11-28T00:06:29.631Z,21.05
2022-11-28T00:08:59.509Z,21.80
2022-11-28T00:11:27.340Z,20.73
2022-11-28T00:13:55.340Z,20.50
2022-11-28T00:16:24.465Z,20.50
2022-11-28T00:18:54.669Z,19.55
2022-11-28T00:21:23.160Z,19.20
2022-11-28T00:23:51.385Z,18.15
2022-11-28T00:26:20.413Z,18.27
2022-11-28T00:28:48.082Z,19.38
2022-11-28T00:31:18.012Z,17.92
2022-11-28T00:33:46.076Z,16.73
2022-11-28T00:36:14.146Z,16.80
2022-11-28T00:38:41.930Z,16.90
2022-11-28T00:41:31.099Z,17.33
2022-11-28T00:43:58.662Z,17.05
2022-11-28T00:46:26.207Z,15.88
2022-11-28T00:48:53.818Z,16.33
2022-11-28T00:51:27.103Z,16.95
2022-11-28T00:53:56.390Z,16.35
2022-11-28T00:56:27.460Z,16.33
2022-11-28T00:58:55.176Z,17.23
2022-11-28T01:01:26.721Z,15.82
2022-11-28T01:03:56.634Z,16.48
2022-11-28T01:06:44.856Z,15.73
2022-11-28T01:09:24.255Z,16.02
2022-11-28T01:11:53.777Z,16.08
2022-11-28T01:14:23.753Z,15.50
2022-11-28T01:16:51.213Z,15.75
2022-11-28T01:19:19.171Z,15.68
2022-11-28T01:21:46.483Z,16.40
2022-11-28T01:24:14.247Z,16.00
2022-11-28T01:26:42.940Z,16.00
2022-11-28T01:29:10.955Z,14.88
2022-11-28T01:31:39.225Z,15.30
2022-11-28T01:34:06.629Z,15.98
2022-11-28T01:36:34.440Z,16.45
2022-11-28T01:39:01.978Z,15.55
2022-11-28T01:41:29.424Z,15.43
2022-11-28T01:44:27.802Z,16.83
2022-11-28T01:46:55.265Z,16.60
2022-11-28T01:49:28.982Z,16.25
2022-11-28T01:52:01.454Z,15.93
2022-11-28T01:54:31.496Z,15.60
2022-11-28T01:57:06.323Z,16.13
2022-11-28T01:59:38.930Z,16.60
2022-11-28T02:02:10.029Z,16.20
2022-11-28T02:04:37.684Z,17.70
2022-11-28T02:07:05.062Z,15.65
2022-11-28T02:09:32.348Z,16.90
2022-11-28T02:12:27.446Z,17.10
2022-11-28T02:15:14.447Z,17.25
2022-11-28T02:18:05.862Z,16.40
2022-11-28T02:20:42.909Z,17.40
2022-11-28T02:23:41.260Z,16.67
2022-11-28T02:26:24.606Z,16.52
2022-11-28T02:29:36.122Z,16.77
2022-11-28T02:32:11.928Z,16.23
2022-11-28T02:34:59.244Z,15.77
2022-11-28T02:37:43.298Z,15.73
2022-11-28T02:40:22.115Z,15.70
2022-11-28T02:43:21.784Z,16.75
2022-11-28T02:46:26.070Z,14.40
2022-11-28T02:48:58.183Z,16.40
2022-11-28T02:51:35.917Z,16.02
2022-11-28T02:54:05.626Z,15.68
2022-11-28T02:56:32.864Z,16.40
2022-11-28T02:59:00.193Z,15.90
2022-11-28T03:01:34.871Z,16.48
2022-11-28T03:04:17.378Z,15.90
2022-11-28T03:07:05.864Z,16.23
2022-11-28T03:10:14.650Z,14.68
2022-11-28T03:13:03.142Z,15.77
2022-11-28T03:15:58.649Z,15.25
2022-11-28T03:18:40.356Z,16.38
2022-11-28T03:21:35.989Z,15.43
2022-11-28T03:24:36.711Z,16.25
2022-11-28T03:27:16.184Z,15.70
2022-11-28T03:29:56.094Z,15.02
2022-11-28T03:32:36.499Z,15.88
2022-11-28T03:35:12.767Z,16.15
2022-11-28T03:37:51.148Z,15.88
2022-11-28T03:40:23.842Z,15.13
2022-11-28T03:43:02.708Z,16.52
2022-11-28T03:45:37.605Z,16.42
2022-11-28T03:48:19.967Z,17.33
2022-11-28T03:51:18.376Z,18.02
2022-11-28T03:54:01.801Z,17.65
2022-11-28T03:56:44.307Z,16.75
2022-11-28T03:59:20.402Z,16.83
2022-11-28T04:02:02.702Z,15.93
2022-11-28T04:04:48.136Z,15.98
2022-11-28T04:07:43.122Z,16.67
2022-11-28T04:10:41.844Z,15.85
2022-11-28T04:13:21.555Z,15.85
2022-11-28T04:16:10.734Z,14.95
2022-11-28T04:18:46.508Z,15.25
2022-11-28T04:21:54.458Z,15.30
2022-11-28T04:24:29.862Z,16.73
2022-11-28T04:27:05.360Z,16.58
2022-11-28T04:29:38.380Z,16.20
2022-11-28T04:32:08.398Z,16.08
2022-11-28T04:34:39.082Z,16.25
2022-11-28T04:37:09.922Z,16.77
2022-11-28T04:39:41.251Z,14.82
2022-11-28T04:42:13.240Z,16.95
2022-11-28T04:45:06.342Z,16.02
2022-11-28T04:47:33.715Z,16.27
2022-11-28T04:50:01.230Z,16.13
2022-11-28T04:52:49.505Z,17.48
2022-11-28T04:55:25.813Z,16.08
2022-11-28T04:58:00.322Z,17.05
2022-11-28T05:00:27.708Z,17.40
2022-11-28T05:02:55.921Z,17.02
2022-11-28T05:05:26.164Z,17.27
2022-11-28T05:07:53.764Z,17.52
2022-11-28T05:10:21.216Z,16.90
2022-11-28T05:12:48.564Z,18.10
2022-11-28T05:15:19.380Z,16.85
2022-11-28T05:17:47.151Z,16.75
2022-11-28T05:20:14.982Z,18.77
2022-11-28T05:22:42.246Z,17.80
2022-11-28T05:25:09.805Z,16.33
2022-11-28T05:27:38.648Z,17.40
2022-11-28T05:30:07.383Z,17.92
2022-11-28T05:32:36.407Z,17.92
2022-11-28T05:35:04.567Z,18.55
2022-11-28T05:37:32.710Z,17.90
2022-11-28T05:40:00.154Z,17.45
2022-11-28T05:42:28.615Z,17.50
2022-11-28T05:44:56.293Z,17.10
2022-11-28T05:47:25.428Z,18.05
2022-11-28T05:49:52.865Z,17.52
2022-11-28T05:52:20.130Z,17.40
2022-11-28T05:54:47.535Z,16.70
2022-11-28T05:57:14.882Z,17.40
2022-11-28T05:59:42.515Z,18.40
2022-11-28T06:02:10.080Z,17.63
2022-11-28T06:04:38.318Z,16.33
2022-11-28T06:07:05.527Z,17.25
2022-11-28T06:09:32.816Z,17.80
2022-11-28T06:12:00.203Z,16.98
2022-11-28T06:14:27.442Z,17.58
2022-11-28T06:16:54.806Z,17.27
2022-11-28T06:19:22.075Z,17.60
2022-11-28T06:21:52.741Z,17.60
2022-11-28T06:24:20.207Z,17.83
2022-11-28T06:26:47.509Z,17.10
2022-11-28T06:29:14.678Z,17.08
2022-11-28T06:31:42.026Z,17.98
2022-11-28T06:34:12.703Z,18.15
2022-11-28T06:36:40.470Z,17.80
2022-11-28T06:39:07.740Z,16.77
2022-11-28T06:41:34.962Z,17.55
2022-11-28T06:44:03.317Z,17.48
2022-11-28T06:46:30.684Z,16.55
2022-11-28T06:48:58.201Z,17.10
2022-11-28T06:51:25.812Z,16.98
2022-11-28T06:53:54.215Z,16.52
2022-11-28T06:56:21.990Z,17.48
2022-11-28T06:58:56.188Z,16.90
2022-11-28T07:01:25.924Z,15.68
2022-11-28T07:03:54.609Z,16.42
2022-11-28T07:06:25.966Z,16.58
2022-11-28T07:08:55.269Z,17.08
2022-11-28T07:11:31.458Z,16.08
2022-11-28T07:14:01.665Z,16.17
2022-11-28T07:16:31.285Z,15.98
2022-11-28T07:18:59.340Z,18.30
2022-11-28T07:21:27.409Z,16.88
2022-11-28T07:23:54.860Z,17.50
2022-11-28T07:26:23.064Z,17.77
2022-11-28T07:28:51.364Z,17.05
2022-11-28T07:31:21.534Z,17.42
2022-11-28T07:33:50.816Z,16.67
2022-11-28T07:36:24.261Z,16.15
2022-11-28T07:38:54.537Z,17.52
2022-11-28T07:41:26.477Z,16.73
2022-11-28T07:43:59.591Z,15.75
2022-11-28T07:46:28.818Z,16.52
2022-11-28T07:48:56.762Z,16.02
2022-11-28T07:51:27.679Z,15.50
2022-11-28T07:53:55.848Z,16.48
2022-11-28T07:56:25.729Z,16.02
2022-11-28T07:58:53.123Z,16.83
2022-11-28T08:01:26.184Z,16.55
2022-11-28T08:03:53.770Z,18.67
2022-11-28T08:06:24.114Z,16.50
2022-11-28T08:08:52.622Z,15.48
2022-11-28T08:11:22.185Z,15.90
2022-11-28T08:13:51.043Z,16.02
2022-11-28T08:16:22.324Z,18.63
2022-11-28T08:18:51.152Z,15.88
2022-11-28T08:21:20.292Z,15.68
2022-11-28T08:23:47.646Z,16.73
2022-11-28T08:26:17.167Z,15.93
2022-11-28T08:28:45.253Z,15.68
2022-11-28T08:31:24.228Z,15.30
2022-11-28T08:33:52.957Z,15.38
2022-11-28T08:36:21.705Z,17.17
2022-11-28T08:39:03.254Z,18.77
2022-11-28T08:41:37.027Z,17.17
2022-11-28T08:44:04.536Z,14.55
2022-11-28T08:46:31.856Z,15.88
2022-11-28T08:49:04.233Z,15.80
2022-11-28T08:51:32.327Z,15.40
2022-11-28T08:54:00.184Z,16.25
2022-11-28T08:56:28.192Z,15.75
2022-11-28T08:58:56.070Z,17.30
2022-11-28T09:01:25.942Z,14.95
2022-11-28T09:03:54.680Z,15.80
2022-11-28T09:06:23.450Z,16.10
2022-11-28T09:08:51.648Z,15.35
2022-11-28T09:11:21.259Z,16.02
2022-11-28T09:13:49.253Z,15.85
2022-11-28T09:16:17.468Z,16.20
2022-11-28T09:18:44.979Z,16.88
2022-11-28T09:21:14.892Z,15.15
2022-11-28T09:23:44.136Z,15.65
2022-11-28T09:26:16.365Z,15.10
2022-11-28T09:28:43.836Z,16.48
2022-11-28T09:31:12.711Z,14.98
2022-11-28T09:33:40.409Z,15.38
2022-11-28T09:36:10.432Z,14.30
2022-11-28T09:38:38.276Z,14.30
2022-11-28T09:41:31.760Z,14.35
2022-11-28T09:44:26.265Z,14.52
2022-11-28T09:46:58.606Z,14.63
2022-11-28T09:49:40.231Z,13.95
2022-11-28T09:52:29.665Z,15.25
2022-11-28T09:55:15.765Z,15.23
2022-11-28T09:57:49.045Z,13.82
2022-11-28T10:00:23.160Z,15.48
2022-11-28T10:02:58.424Z,14.32
2022-11-28T10:05:37.692Z,14.60
2022-11-28T10:08:19.035Z,15.50
2022-11-28T10:11:10.007Z,13.93
2022-11-28T10:14:11.715Z,14.70
2022-11-28T10:16:47.631Z,14.83
2022-11-28T10:19:52.316Z,15.15
2022-11-28T10:22:14.088Z,15.23
2022-11-28T10:25:04.484Z,14.95
2022-11-28T10:27:35.413Z,15.25
2022-11-28T10:30:11.537Z,16.02
2022-11-28T10:32:42.539Z,14.90
2022-11-28T10:35:35.916Z,17.25
2022-11-28T10:38:06.691Z,15.27
2022-11-28T10:40:56.569Z,15.20
2022-11-28T10:43:30.711Z,15.50
2022-11-28T10:46:03.687Z,15.68
2022-11-28T10:48:45.480Z,15.30
2022-11-28T10:51:15.605Z,15.00
2022-11-28T10:54:16.817Z,15.32
2022-11-28T10:56:56.407Z,16.90
2022-11-28T11:00:03.849Z,15.35
2022-11-28T11:02:40.660Z,15.93
2022-11-28T11:05:16.422Z,15.63
2022-11-28T11:07:51.558Z,16.10
2022-11-28T11:10:24.257Z,14.98
2022-11-28T11:12:53.062Z,16.20
2022-11-28T11:15:24.941Z,15.00
2022-11-28T11:17:52.439Z,15.32
2022-11-28T11:20:35.264Z,16.02
2022-11-28T11:23:17.962Z,15.95
2022-11-28T11:25:52.306Z,15.48
2022-11-28T11:28:29.811Z,16.10
2022-11-28T11:31:05.883Z,17.35
2022-11-28T11:33:36.164Z,17.90
2022-11-28T11:36:06.314Z,15.65
2022-11-28T11:38:37.958Z,15.18
2022-11-28T11:41:30.140Z,15.13
2022-11-28T11:44:23.204Z,14.88
2022-11-28T11:46:55.407Z,15.05
2022-11-28T11:49:39.496Z,16.30
2022-11-28T11:52:21.418Z,17.20
2022-11-28T11:54:55.052Z,17.23
2022-11-28T11:57:34.361Z,16.83
2022-11-28T12:00:15.277Z,16.70
2022-11-28T12:02:51.967Z,17.35
2022-11-28T12:06:12.808Z,16.35
2022-11-28T12:08:53.563Z,16.65
2022-11-28T12:11:32.017Z,17.38
2022-11-28T12:14:04.995Z,17.08
2022-11-28T12:16:57.452Z,17.38
2022-11-28T12:20:06.433Z,18.00
2022-11-28T12:22:58.087Z,17.15
2022-11-28T12:25:34.250Z,16.48
2022-11-28T12:28:31.458Z,16.77
2022-11-28T12:31:19.921Z,17.50
2022-11-28T12:34:20.542Z,16.92
2022-11-28T12:37:02.374Z,18.20
2022-11-28T12:40:06.928Z,17.10
2022-11-28T12:42:40.487Z,17.05
2022-11-28T12:45:37.293Z,22.55
2022-11-28T12:48:35.461Z,16.38
2022-11-28T12:51:17.840Z,16.50
2022-11-28T12:53:57.000Z,16.63
2022-11-28T12:56:38.291Z,16.67
2022-11-28T12:59:22.902Z,16.17
2022-11-28T13:02:27.120Z,17.40
2022-11-28T13:05:03.983Z,16.25
2022-11-28T13:07:43.205Z,16.73
2022-11-28T13:10:13.725Z,17.10
2022-11-28T13:12:59.400Z,16.92
2022-11-28T13:15:58.287Z,16.88
2022-11-28T13:18:52.409Z,18.25
2022-11-28T13:21:33.490Z,18.20
2022-11-28T13:24:07.331Z,16.88
2022-11-28T13:26:49.975Z,18.23
2022-11-28T13:29:17.272Z,17.23
2022-11-28T13:32:02.091Z,17.52
2022-11-28T13:34:31.567Z,18.17
2022-11-28T13:40:19.226Z,16.85
2022-11-28T13:43:06.509Z,17.38
2022-11-28T13:45:39.135Z,17.13
2022-11-28T13:49:13.357Z,17.15
2022-11-28T13:51:31.676Z,17.55
2022-11-28T13:54:18.286Z,17.50
2022-11-28T13:57:21.495Z,17.48
2022-11-28T14:00:13.852Z,17.60
2022-11-28T14:02:49.990Z,17.02
2022-11-28T14:05:26.540Z,18.50
2022-11-28T14:07:55.900Z,19.23
2022-11-28T14:10:40.692Z,17.58
2022-11-28T14:13:44.143Z,19.65
2022-11-28T14:16:30.250Z,17.70
2022-11-28T14:19:18.325Z,19.05
2022-11-28T14:21:45.838Z,19.45
2022-11-28T14:24:28.295Z,18.63
2022-11-28T14:27:00.981Z,17.98
2022-11-28T14:29:38.398Z,19.02
2022-11-28T14:32:30.124Z,17.38
2022-11-28T14:34:55.289Z,18.73
2022-11-28T14:37:29.420Z,18.58
2022-11-28T14:39:57.968Z,18.05
2022-11-28T14:42:58.953Z,18.30
2022-11-28T14:45:43.042Z,18.77
2022-11-28T14:48:22.856Z,19.10
2022-11-28T14:50:59.364Z,18.63
2022-11-28T14:53:37.477Z,20.10
2022-11-28T14:56:11.554Z,21.25
2022-11-28T14:58:39.628Z,19.95
2022-11-28T15:01:13.615Z,19.55
2022-11-28T15:04:04.677Z,20.15
2022-11-28T15:06:37.160Z,18.88
2022-11-28T15:09:18.099Z,19.83
2022-11-28T15:12:00.793Z,20.92
2022-11-28T15:14:30.616Z,21.10
2022-11-28T15:17:04.463Z,20.45
2022-11-28T15:19:40.745Z,19.90
2022-11-28T15:22:41.375Z,19.92
2022-11-28T15:25:22.253Z,20.20
2022-11-28T15:27:50.005Z,19.08
2022-11-28T15:30:20.621Z,19.60
2022-11-28T15:32:48.614Z,20.63
2022-11-28T15:35:19.019Z,20.38
2022-11-28T15:38:05.280Z,21.60
2022-11-28T15:40:36.663Z,21.40
2022-11-28T15:43:11.264Z,21.52
2022-11-28T15:45:42.422Z,20.30
2022-11-28T15:48:39.900Z,20.77
2022-11-28T15:51:08.742Z,21.92
2022-11-28T15:53:42.549Z,20.20
2022-11-28T15:56:13.786Z,21.85
2022-11-28T15:58:44.585Z,20.48
2022-11-28T16:01:19.750Z,21.73
2022-11-28T16:03:58.841Z,20.35
2022-11-28T16:06:30.885Z,22.30
2022-11-28T16:09:05.811Z,23.33
2022-11-28T16:11:35.819Z,20.70
2022-11-28T16:14:09.422Z,20.30
2022-11-28T16:16:38.989Z,21.67
2022-11-28T16:19:08.591Z,21.83
2022-11-28T16:21:43.460Z,22.67
2022-11-28T16:24:38.699Z,22.25
2022-11-28T16:27:06.576Z,21.45
2022-11-28T16:29:36.601Z,22.30
2022-11-28T16:32:26.578Z,22.83
2022-11-28T16:34:55.680Z,22.83
2022-11-28T16:37:30.163Z,25.35
2022-11-28T16:40:21.439Z,25.10
2022-11-28T16:43:04.471Z,23.40
2022-11-28T16:45:33.340Z,22.75
2022-11-28T16:48:00.778Z,22.95
2022-11-28T16:50:28.552Z,22.88
2022-11-28T16:52:58.689Z,23.83
2022-11-28T16:55:28.995Z,23.95
2022-11-28T16:58:22.810Z,23.55
2022-11-28T17:01:08.978Z,23.00
2022-11-28T17:03:51.403Z,23.48
2022-11-28T17:08:47.913Z,22.20
2022-11-28T17:11:18.201Z,24.67
2022-11-28T17:13:45.901Z,24.98
2022-11-28T17:16:20.343Z,25.83
2022-11-28T17:18:48.354Z,24.90
2022-11-28T17:21:17.296Z,29.30
2022-11-28T17:23:45.279Z,24.35
2022-11-28T17:26:12.861Z,25.77
2022-11-28T17:28:40.176Z,25.00
2022-11-28T17:31:10.212Z,25.08
2022-11-28T17:33:43.123Z,23.45
2022-11-28T17:36:12.626Z,25.10
2022-11-28T17:38:40.324Z,24.80
2022-11-28T17:41:14.860Z,25.10
2022-11-28T17:43:42.676Z,27.63
2022-11-28T17:46:10.494Z,25.50
2022-11-28T17:48:38.186Z,25.38
2022-11-28T17:51:06.504Z,26.75
2022-11-28T17:53:34.176Z,25.25
2022-11-28T17:56:01.745Z,25.05
2022-11-28T17:58:29.614Z,27.30
2022-11-28T18:01:00.407Z,26.45
2022-11-28T18:03:28.899Z,26.48
2022-11-28T18:05:56.416Z,25.42
2022-11-28T18:08:23.890Z,26.67
2022-11-28T18:11:03.705Z,28.25
2022-11-28T18:13:31.752Z,26.08
2022-11-28T18:15:59.588Z,26.27
2022-11-28T18:18:28.153Z,24.92
2022-11-28T18:20:57.027Z,25.80
2022-11-28T18:23:24.605Z,25.73
2022-11-28T18:25:52.581Z,26.92
2022-11-28T18:28:22.189Z,25.08
2022-11-28T18:30:49.954Z,24.23
2022-11-28T18:33:18.039Z,27.38
2022-11-28T18:35:45.772Z,23.83
2022-11-28T18:38:13.636Z,25.63
2022-11-28T18:40:41.737Z,24.73
2022-11-28T18:43:09.265Z,26.83
2022-11-28T18:45:36.910Z,27.90
2022-11-28T18:48:05.590Z,27.20
2022-11-28T18:50:34.934Z,29.02
2022-11-28T18:53:02.994Z,27.92
2022-11-28T18:55:30.820Z,26.23
2022-11-28T18:57:59.910Z,24.55
2022-11-28T19:00:28.342Z,25.17
2022-11-28T19:02:55.662Z,25.25
2022-11-28T19:05:23.750Z,23.90
2022-11-28T19:07:51.352Z,26.35
2022-11-28T19:10:19.400Z,26.20
2022-11-28T19:12:47.162Z,26.20
2022-11-28T19:15:14.751Z,26.60
2022-11-28T19:17:43.221Z,25.67
2022-11-28T19:20:11.422Z,25.73
2022-11-28T19:22:38.853Z,25.20
2022-11-28T19:25:07.041Z,28.35
2022-11-28T19:27:37.525Z,27.10
2022-11-28T19:30:06.673Z,25.30
2022-11-28T19:32:36.331Z,25.52
2022-11-28T19:35:04.381Z,24.52
2022-11-28T19:37:32.866Z,24.15
2022-11-28T19:40:02.842Z,24.42
2022-11-28T19:42:31.067Z,22.17
2022-11-28T19:44:58.996Z,23.55
2022-11-28T19:47:26.380Z,22.52
2022-11-28T19:49:53.901Z,22.65
2022-11-28T19:52:21.722Z,24.52
2022-11-28T19:54:49.357Z,23.30
2022-11-28T19:57:18.659Z,22.63
2022-11-28T19:59:47.889Z,23.98
2022-11-28T20:02:15.716Z,24.45
2022-11-28T20:04:43.718Z,24.48
2022-11-28T20:07:11.199Z,27.55
2022-11-28T20:09:38.956Z,24.98
2022-11-28T20:12:06.711Z,22.83
2022-11-28T20:14:34.892Z,24.75
2022-11-28T20:17:03.751Z,24.63
2022-11-28T20:19:32.307Z,25.10
2022-11-28T20:22:00.707Z,23.27
2022-11-28T20:24:30.200Z,23.88
2022-11-28T20:26:58.898Z,23.13
2022-11-28T20:29:28.088Z,23.65
2022-11-28T20:31:57.534Z,22.45
2022-11-28T20:34:27.094Z,22.83
2022-11-28T20:36:55.061Z,23.92
2022-11-28T20:39:23.142Z,25.10
2022-11-28T20:41:50.755Z,25.15
2022-11-28T20:44:19.084Z,27.73
2022-11-28T20:46:46.790Z,22.52
2022-11-28T20:49:16.585Z,24.25
2022-11-28T20:51:44.161Z,23.08
2022-11-28T20:54:13.653Z,20.92
2022-11-28T20:57:05.476Z,22.45
2022-11-28T20:59:30.741Z,20.67
2022-11-28T21:01:58.125Z,22.10
2022-11-28T21:04:25.714Z,22.83
2022-11-28T21:06:53.252Z,21.73
2022-11-28T21:09:20.934Z,20.17
2022-11-28T21:12:04.868Z,20.90
2022-11-28T21:14:32.470Z,19.25
2022-11-28T21:17:00.120Z,23.15
2022-11-28T21:19:27.729Z,20.88
2022-11-28T21:21:55.485Z,22.60
2022-11-28T21:24:22.818Z,24.90
2022-11-28T21:26:54.001Z,22.20
2022-11-28T21:29:24.369Z,21.02
2022-11-28T21:31:52.125Z,21.17
2022-11-28T21:34:19.769Z,19.38
2022-11-28T21:36:47.410Z,20.45
2022-11-28T21:39:17.667Z,20.80
2022-11-28T21:41:45.010Z,20.48
2022-11-28T21:44:12.417Z,20.35
2022-11-28T21:46:39.776Z,20.90
2022-11-28T21:49:07.262Z,20.15
2022-11-28T21:54:06.879Z,21.63
2022-11-28T21:56:34.577Z,21.25
2022-11-28T21:59:02.028Z,20.85
2022-11-28T22:01:30.131Z,22.17
2022-11-28T22:04:02.508Z,20.58
2022-11-28T22:06:45.623Z,22.10
2022-11-28T22:09:14.143Z,21.60
2022-11-28T22:11:41.552Z,21.40
2022-11-28T22:14:09.770Z,20.65
2022-11-28T22:16:37.724Z,21.02
2022-11-28T22:19:05.756Z,20.63
2022-11-28T22:21:51.938Z,21.15
2022-11-28T22:24:20.456Z,20.98
2022-11-28T22:26:48.753Z,20.98
2022-11-28T22:29:16.346Z,21.90
2022-11-28T22:31:43.778Z,21.67
2022-11-28T22:34:11.421Z,20.13
2022-11-28T22:36:39.588Z,20.25
2022-11-28T22:39:11.623Z,21.17
2022-11-28T22:41:39.343Z,21.77
2022-11-28T22:44:06.814Z,21.48
2022-11-28T22:46:34.353Z,21.38
2022-11-28T22:49:02.731Z,20.60
2022-11-28T22:51:31.826Z,20.70
2022-11-28T22:54:01.853Z,20.55
2022-11-28T22:56:31.816Z,20.40
2022-11-28T22:59:00.002Z,20.75
2022-11-28T23:01:30.507Z,21.35
2022-11-28T23:03:59.063Z,21.80
2022-11-28T23:06:29.339Z,22.48
2022-11-28T23:08:59.203Z,24.58
2022-11-28T23:11:31.241Z,25.67
2022-11-28T23:14:00.574Z,23.15
2022-11-28T23:16:34.021Z,21.02
2022-11-28T23:19:06.881Z,21.40
2022-11-28T23:21:37.546Z,20.65
2022-11-28T23:24:06.313Z,20.75
2022-11-28T23:26:34.659Z,21.92
2022-11-28T23:29:05.031Z,22.58
2022-11-28T23:31:38.789Z,22.52
2022-11-28T23:34:07.124Z,21.77
2022-11-28T23:36:41.810Z,22.55
2022-11-28T23:39:15.689Z,21.55
2022-11-28T23:41:43.752Z,22.88
2022-11-28T23:44:16.380Z,19.23
2022-11-28T23:46:43.915Z,21.13
2022-11-28T23:49:11.817Z,22.05
2022-11-28T23:51:40.690Z,21.60
2022-11-28T23:54:09.658Z,22.13
2022-11-28T23:56:38.309Z,20.48
2022-11-28T23:59:08.036Z,21.55
